createdAt,value
2023-01-12T00:05:00.598Z,38.00
2023-01-12T00:10:04.663Z,46.50
2023-01-12T00:15:09.628Z,36.25
2023-01-12T00:20:14.172Z,44.50
2023-01-12T00:25:18.605Z,42.50
2023-01-12T00:30:23.073Z,45.50
2023-01-12T00:35:27.659Z,43.75
2023-01-12T00:40:32.238Z,43.00
2023-01-12T00:45:36.261Z,45.25
2023-01-12T00:50:40.766Z,44.25
2023-01-12T00:55:47.407Z,49.00
2023-01-12T01:00:52.341Z,45.25
2023-01-12T01:06:03.283Z,48.25
2023-01-12T01:11:08.580Z,50.00
2023-01-12T01:16:14.343Z,56.50
2023-01-12T01:21:20.091Z,54.00
2023-01-12T01:26:25.407Z,56.00
2023-01-12T01:31:29.942Z,58.25
2023-01-12T01:36:34.565Z,60.25
2023-01-12T01:41:39.914Z,54.75
2023-01-12T01:46:51.871Z,58.50
2023-01-12T01:51:58.692Z,51.75
2023-01-12T01:57:03.270Z,50.75
2023-01-12T02:02:08.355Z,52.25
2023-01-12T02:07:13.325Z,51.50
2023-01-12T02:12:39.368Z,52.00
2023-01-12T02:17:58.146Z,50.00
2023-01-12T02:23:22.681Z,58.50
2023-01-12T02:28:39.537Z,56.00
2023-01-12T02:34:02.423Z,60.25
2023-01-12T02:39:26.708Z,54.00
2023-01-12T02:44:51.754Z,59.50
2023-01-12T02:50:01.073Z,61.25
2023-01-12T02:55:09.684Z,61.25
2023-01-12T03:00:16.667Z,63.00
2023-01-12T03:05:21.390Z,58.50
2023-01-12T03:10:49.029Z,70.50
2023-01-12T03:15:55.690Z,66.25
2023-01-12T03:21:06.117Z,63.75
2023-01-12T03:26:13.205Z,65.00
2023-01-12T03:31:17.946Z,59.00
2023-01-12T03:36:22.499Z,59.25
2023-01-12T03:41:40.318Z,59.50
2023-01-12T03:46:49.073Z,67.25
2023-01-12T03:51:55.288Z,65.75
2023-01-12T03:57:00.012Z,58.25
2023-01-12T04:02:04.754Z,64.00
2023-01-12T04:07:09.142Z,62.50
2023-01-12T04:12:13.554Z,65.50
2023-01-12T04:17:18.265Z,67.00
2023-01-12T04:22:40.570Z,62.75
2023-01-12T04:27:49.472Z,64.00
2023-01-12T04:32:53.740Z,59.75
2023-01-12T04:37:58.083Z,57.50
2023-01-12T04:43:12.387Z,58.50
2023-01-12T04:48:18.049Z,61.75
2023-01-12T04:53:23.424Z,58.25
2023-01-12T04:58:27.799Z,67.00
2023-01-12T05:03:32.084Z,65.50
2023-01-12T05:08:54.763Z,64.75
2023-01-12T05:13:59.393Z,60.50
2023-01-12T05:19:03.834Z,64.00
2023-01-12T05:24:08.283Z,68.00
2023-01-12T05:29:15.638Z,65.75
2023-01-12T05:34:22.676Z,65.50
2023-01-12T05:39:27.046Z,92.75
2023-01-12T05:44:31.588Z,71.25
2023-01-12T05:49:36.009Z,68.25
2023-01-12T05:54:40.442Z,64.25
2023-01-12T05:59:44.703Z,64.75
2023-01-12T06:04:49.087Z,79.50
2023-01-12T06:09:53.445Z,57.25
2023-01-12T06:14:57.957Z,58.75
2023-01-12T06:20:02.340Z,70.00
2023-01-12T06:25:06.928Z,64.50
2023-01-12T06:30:11.916Z,62.25
2023-01-12T06:35:19.581Z,68.25
2023-01-12T06:40:24.113Z,63.25
2023-01-12T06:45:28.488Z,58.50
2023-01-12T06:50:34.220Z,60.50
2023-01-12T06:55:38.679Z,58.50
2023-01-12T07:00:43.005Z,66.00
2023-01-12T07:05:47.447Z,55.75
2023-01-12T07:10:51.773Z,51.25
2023-01-12T07:15:56.693Z,54.50
2023-01-12T07:21:01.220Z,66.25
2023-01-12T07:26:06.021Z,48.75
2023-01-12T07:31:10.729Z,51.25
2023-01-12T07:36:15.294Z,65.50
2023-01-12T07:41:37.941Z,50.25
2023-01-12T07:46:45.969Z,60.50
2023-01-12T07:51:50.311Z,55.50
2023-01-12T07:56:54.662Z,53.50
2023-01-12T08:01:58.994Z,57.50
2023-01-12T08:07:03.392Z,71.25
2023-01-12T08:12:07.809Z,53.75
2023-01-12T08:17:20.332Z,74.00
2023-01-12T08:22:27.104Z,69.25
2023-01-12T08:27:34.521Z,66.00
2023-01-12T08:32:39.422Z,64.50
2023-01-12T08:37:43.645Z,66.50
2023-01-12T08:42:47.972Z,65.25
2023-01-12T08:47:52.250Z,67.00
2023-01-12T08:52:57.941Z,62.50
2023-01-12T08:58:05.400Z,59.75
2023-01-12T09:03:11.749Z,61.50
2023-01-12T09:08:16.312Z,65.50
2023-01-12T09:13:20.529Z,67.00
2023-01-12T09:18:24.855Z,66.75
2023-01-12T09:23:29.176Z,68.25
2023-01-12T09:28:33.609Z,53.25
2023-01-12T09:33:38.632Z,53.50
2023-01-12T09:38:43.545Z,65.00
2023-01-12T09:44:05.989Z,60.00
2023-01-12T09:49:10.331Z,61.25
2023-01-12T09:54:15.131Z,68.75
2023-01-12T09:59:24.553Z,59.50
2023-01-12T10:04:29.598Z,62.00
2023-01-12T10:09:36.229Z,72.25
2023-01-12T10:14:43.737Z,58.50
2023-01-12T10:19:54.424Z,62.75
2023-01-12T10:24:59.417Z,55.25
2023-01-12T10:30:04.187Z,67.00
2023-01-12T10:35:15.174Z,61.00
2023-01-12T10:40:39.979Z,65.50
2023-01-12T10:45:45.258Z,66.50
2023-01-12T10:51:00.474Z,77.00
2023-01-12T10:56:16.679Z,73.50
2023-01-12T11:01:22.110Z,75.00
2023-01-12T11:06:27.095Z,72.00
2023-01-12T11:11:33.708Z,69.00
2023-01-12T11:16:45.005Z,71.00
2023-01-12T11:22:22.121Z,68.00
2023-01-12T11:27:33.323Z,71.50
2023-01-12T11:32:41.066Z,69.75
2023-01-12T11:37:47.543Z,71.25
2023-01-12T11:43:10.871Z,69.75
2023-01-12T11:48:29.965Z,71.75
2023-01-12T11:53:35.968Z,74.50
2023-01-12T11:58:51.126Z,76.50
2023-01-12T12:03:58.844Z,65.00
2023-01-12T12:09:21.807Z,68.75
2023-01-12T12:14:28.048Z,67.50
2023-01-12T12:19:40.791Z,61.25
2023-01-12T12:24:54.159Z,66.00
2023-01-12T12:30:16.443Z,60.00
2023-01-12T12:35:23.709Z,60.25
2023-01-12T12:40:55.369Z,57.75
2023-01-12T12:46:02.968Z,62.00
2023-01-12T12:51:09.525Z,67.75
2023-01-12T12:56:15.871Z,64.75
2023-01-12T13:01:24.136Z,62.25
2023-01-12T13:06:34.493Z,70.00
2023-01-12T13:11:57.567Z,67.00
2023-01-12T13:17:03.321Z,67.00
2023-01-12T13:22:26.257Z,61.75
2023-01-12T13:27:49.214Z,61.00
2023-01-12T13:33:12.214Z,59.50
2023-01-12T13:38:42.153Z,64.50
2023-01-12T13:43:49.623Z,62.50
2023-01-12T13:48:56.894Z,55.25
2023-01-12T13:54:01.821Z,52.75
2023-01-12T13:59:10.223Z,58.25
2023-01-12T14:04:21.032Z,55.25
2023-01-12T14:10:05.319Z,55.00
2023-01-12T14:15:51.548Z,49.25
2023-01-12T14:20:57.744Z,58.50
2023-01-12T14:26:11.863Z,58.50
2023-01-12T14:31:23.710Z,57.00
2023-01-12T14:36:58.212Z,57.00
2023-01-12T14:42:21.229Z,49.25
2023-01-12T14:47:32.204Z,52.50
2023-01-12T14:52:38.546Z,50.50
2023-01-12T14:57:43.741Z,56.00
2023-01-12T15:02:51.445Z,51.00
2023-01-12T15:08:11.293Z,56.75
2023-01-12T15:13:34.306Z,56.00
2023-01-12T15:18:57.538Z,56.00
2023-01-12T15:24:20.404Z,62.50
2023-01-12T15:29:25.271Z,62.25
2023-01-12T15:34:30.328Z,55.75
2023-01-12T15:39:35.625Z,51.25
2023-01-12T15:44:41.828Z,56.25
2023-01-12T15:49:48.863Z,54.00
2023-01-12T15:54:55.090Z,56.00
2023-01-12T15:59:59.951Z,59.00
2023-01-12T16:05:06.029Z,59.00
2023-01-12T16:10:11.342Z,55.50
2023-01-12T16:15:22.870Z,55.00
2023-01-12T16:20:27.802Z,55.50
2023-01-12T16:25:32.766Z,59.25
2023-01-12T16:30:47.066Z,56.25
2023-01-12T16:35:52.218Z,55.75
2023-01-12T16:40:57.095Z,53.75
2023-01-12T16:46:03.660Z,54.25
2023-01-12T16:51:12.626Z,52.50
2023-01-12T16:56:19.268Z,51.75
2023-01-12T17:01:26.127Z,57.75
2023-01-12T17:06:31.726Z,53.75
2023-01-12T17:11:36.782Z,55.50
2023-01-12T17:16:41.469Z,54.00
2023-01-12T17:21:46.736Z,53.75
2023-01-12T17:26:52.937Z,59.25
2023-01-12T17:32:06.656Z,58.00
2023-01-12T17:37:12.286Z,49.00
2023-01-12T17:42:36.435Z,52.25
2023-01-12T17:47:40.539Z,54.50
2023-01-12T17:52:45.122Z,52.50
2023-01-12T17:57:49.893Z,52.50
2023-01-12T18:02:54.813Z,54.50
2023-01-12T18:07:59.611Z,57.50
2023-01-12T18:13:04.316Z,55.25
2023-01-12T18:18:08.859Z,55.50
2023-01-12T18:23:13.388Z,54.00
2023-01-12T18:28:18.497Z,55.25
2023-01-12T18:33:22.990Z,56.75
2023-01-12T18:38:30.598Z,63.00
2023-01-12T18:43:35.191Z,51.75
2023-01-12T18:48:48.577Z,56.25
2023-01-12T18:53:52.835Z,57.75
2023-01-12T18:58:57.292Z,56.25
2023-01-12T19:04:03.884Z,57.00
2023-01-12T19:09:26.538Z,50.50
2023-01-12T19:14:49.237Z,59.25
2023-01-12T19:19:53.375Z,56.50
2023-01-12T19:25:16.254Z,56.75
2023-01-12T19:30:21.232Z,57.25
2023-01-12T19:35:25.715Z,53.75
2023-01-12T19:40:36.364Z,57.50
2023-01-12T19:45:42.273Z,53.75
2023-01-12T19:50:47.135Z,57.75
2023-01-12T19:55:52.403Z,53.75
2023-01-12T20:00:57.331Z,53.25
2023-01-12T20:06:06.410Z,53.25
2023-01-12T20:11:10.444Z,56.25
2023-01-12T20:16:15.170Z,57.25
2023-01-12T20:21:19.757Z,52.00
2023-01-12T20:26:24.414Z,55.75
2023-01-12T20:31:29.254Z,62.50
2023-01-12T20:36:33.745Z,61.50
2023-01-12T20:41:39.478Z,54.00
2023-01-12T20:46:44.283Z,53.25
2023-01-12T20:51:49.539Z,56.75
2023-01-12T20:56:54.269Z,53.50
2023-01-12T21:01:58.921Z,53.00
2023-01-12T21:07:03.508Z,56.00
2023-01-12T21:12:08.192Z,53.00
2023-01-12T21:17:12.730Z,53.00
2023-01-12T21:22:17.453Z,55.75
2023-01-12T21:27:22.098Z,62.50
2023-01-12T21:32:28.463Z,50.50
2023-01-12T21:37:33.507Z,54.75
2023-01-12T21:42:56.495Z,54.00
2023-01-12T21:48:00.934Z,50.00
2023-01-12T21:53:05.784Z,52.25
2023-01-12T21:58:10.573Z,50.25
2023-01-12T22:03:15.025Z,57.00
2023-01-12T22:08:19.669Z,56.00
2023-01-12T22:13:24.134Z,53.50
2023-01-12T22:18:28.701Z,53.00
2023-01-12T22:23:33.209Z,53.25
2023-01-12T22:28:39.020Z,58.00
2023-01-12T22:33:58.799Z,55.00
2023-01-12T22:39:03.315Z,56.25
2023-01-12T22:44:08.164Z,48.75
2023-01-12T22:49:12.824Z,53.75
2023-01-12T22:54:17.315Z,51.75
2023-01-12T22:59:21.993Z,53.75
2023-01-12T23:04:26.667Z,56.50
2023-01-12T23:09:31.235Z,53.75
2023-01-12T23:14:35.758Z,56.25
2023-01-12T23:19:40.621Z,55.00
2023-01-12T23:24:45.248Z,57.25
2023-01-12T23:29:49.768Z,55.50
2023-01-12T23:34:54.313Z,57.25
2023-01-12T23:39:58.805Z,54.50
2023-01-12T23:45:03.632Z,56.75
2023-01-12T23:50:08.751Z,57.25
2023-01-12T23:55:13.403Z,52.75
